createdAt,value
2023-03-27T00:02:00.242Z,9.10
2023-03-27T00:06:17.228Z,5.50
2023-03-27T00:10:29.820Z,8.15
2023-03-27T00:14:42.315Z,8.15
2023-03-27T00:18:55.742Z,7.35
2023-03-27T00:23:08.286Z,9.30
2023-03-27T00:27:20.588Z,8.05
2023-03-27T00:31:32.951Z,9.93
2023-03-27T00:35:47.643Z,8.43
2023-03-27T00:40:00.594Z,7.95
2023-03-27T00:44:25.795Z,9.05
2023-03-27T00:48:38.489Z,11.18
2023-03-27T00:52:56.567Z,6.28
2023-03-27T00:57:15.464Z,9.43
2023-03-27T01:01:29.478Z,5.30
2023-03-27T01:05:42.141Z,5.38
2023-03-27T01:09:56.705Z,4.72
2023-03-27T01:14:16.648Z,5.65
2023-03-27T01:18:49.209Z,7.32
2023-03-27T01:23:59.660Z,6.45
2023-03-27T01:28:33.959Z,7.32
2023-03-27T01:33:01.800Z,5.70
2023-03-27T01:38:00.127Z,5.43
2023-03-27T01:42:21.243Z,4.60
2023-03-27T01:46:42.041Z,5.90
2023-03-27T01:51:04.987Z,3.83
2023-03-27T01:55:24.406Z,5.60
2023-03-27T01:59:44.880Z,5.68
2023-03-27T02:04:02.128Z,5.07
2023-03-27T02:08:31.506Z,4.70
2023-03-27T02:13:01.597Z,5.07
2023-03-27T02:21:28.146Z,4.78
2023-03-27T02:25:45.708Z,4.13
2023-03-27T02:30:16.904Z,3.80
2023-03-27T02:34:39.834Z,3.90
2023-03-27T02:39:10.383Z,5.50
2023-03-27T02:43:35.106Z,4.03
2023-03-27T02:48:27.764Z,3.60
2023-03-27T02:52:53.920Z,2.38
2023-03-27T02:57:11.939Z,3.83
2023-03-27T03:01:45.756Z,4.00
2023-03-27T03:06:07.515Z,4.05
2023-03-27T03:10:21.523Z,3.35
2023-03-27T03:14:39.560Z,6.20
2023-03-27T03:18:52.252Z,2.58
2023-03-27T03:23:04.649Z,5.75
2023-03-27T03:27:21.267Z,4.72
2023-03-27T03:31:43.786Z,4.68
2023-03-27T03:36:01.029Z,3.88
2023-03-27T03:40:19.630Z,3.42
2023-03-27T03:44:35.653Z,7.05
2023-03-27T03:48:59.238Z,9.85
2023-03-27T03:53:12.726Z,3.38
2023-03-27T03:57:25.063Z,3.08
2023-03-27T04:01:51.919Z,5.63
2023-03-27T04:06:07.981Z,4.80
2023-03-27T04:10:20.375Z,2.95
2023-03-27T04:14:33.489Z,5.68
2023-03-27T04:18:54.750Z,3.80
2023-03-27T04:23:10.406Z,3.93
2023-03-27T04:27:25.162Z,4.63
2023-03-27T04:36:18.723Z,3.50
2023-03-27T04:40:39.668Z,3.38
2023-03-27T04:44:53.329Z,4.93
2023-03-27T04:49:06.344Z,3.97
2023-03-27T04:53:38.090Z,5.13
2023-03-27T04:57:51.372Z,4.70
2023-03-27T05:02:05.385Z,7.03
2023-03-27T05:06:28.248Z,13.63
2023-03-27T05:10:40.868Z,3.33
2023-03-27T05:14:53.324Z,5.57
2023-03-27T05:19:20.495Z,6.55
2023-03-27T05:23:42.467Z,7.93
2023-03-27T05:27:55.409Z,6.53
2023-03-27T05:32:10.958Z,5.78
2023-03-27T05:36:30.122Z,5.45
2023-03-27T05:40:43.877Z,5.35
2023-03-27T05:45:00.582Z,7.93
2023-03-27T05:49:13.529Z,5.45
2023-03-27T05:53:28.379Z,8.15
2023-03-27T05:58:00.154Z,8.77
2023-03-27T06:02:21.109Z,5.78
2023-03-27T06:06:44.042Z,5.17
2023-03-27T06:10:57.965Z,5.28
2023-03-27T06:15:18.136Z,4.80
2023-03-27T06:19:37.751Z,11.55
2023-03-27T06:23:50.157Z,5.68
2023-03-27T06:28:08.588Z,5.40
2023-03-27T06:32:30.037Z,6.43
2023-03-27T06:36:43.314Z,6.97
2023-03-27T06:40:58.133Z,8.38
2023-03-27T06:45:12.081Z,8.23
2023-03-27T06:49:47.929Z,9.32
2023-03-27T06:54:06.240Z,9.82
2023-03-27T06:58:19.401Z,10.13
2023-03-27T07:02:32.117Z,9.88
2023-03-27T07:07:02.670Z,10.77
2023-03-27T07:11:19.378Z,10.25
2023-03-27T07:15:40.153Z,9.93
2023-03-27T07:19:54.125Z,8.23
2023-03-27T07:24:10.275Z,10.25
2023-03-27T07:28:23.502Z,15.98
2023-03-27T07:32:37.990Z,12.10
2023-03-27T07:36:53.410Z,8.57
2023-03-27T07:41:07.411Z,9.07
2023-03-27T07:45:38.724Z,12.63
2023-03-27T07:49:51.261Z,8.40
2023-03-27T07:54:07.557Z,7.95
2023-03-27T07:58:23.733Z,7.95
2023-03-27T08:02:37.973Z,6.13
2023-03-27T08:06:51.967Z,7.55
2023-03-27T08:11:13.513Z,8.90
2023-03-27T08:15:32.531Z,9.20
2023-03-27T08:19:46.685Z,10.48
2023-03-27T08:24:04.984Z,11.10
2023-03-27T08:28:20.486Z,9.90
2023-03-27T08:32:33.297Z,10.57
2023-03-27T08:36:52.810Z,8.35
2023-03-27T08:41:08.005Z,11.63
2023-03-27T08:45:30.864Z,11.75
2023-03-27T08:50:15.669Z,12.43
2023-03-27T08:54:35.131Z,15.50
2023-03-27T08:58:49.155Z,14.38
2023-03-27T09:03:29.859Z,12.32
2023-03-27T09:07:50.312Z,16.67
2023-03-27T09:12:26.188Z,18.08
2023-03-27T09:16:49.970Z,19.75
2023-03-27T09:21:20.034Z,17.88
2023-03-27T09:25:38.304Z,21.67
2023-03-27T09:30:11.338Z,19.00
2023-03-27T09:34:33.746Z,19.60
2023-03-27T09:38:51.264Z,16.65
2023-03-27T09:43:24.537Z,15.75
2023-03-27T09:47:45.580Z,14.40
2023-03-27T09:52:00.483Z,13.30
2023-03-27T09:56:39.129Z,6.90
2023-03-27T10:01:23.633Z,8.50
2023-03-27T10:05:39.237Z,15.95
2023-03-27T10:10:09.746Z,15.50
2023-03-27T10:14:47.656Z,15.13
2023-03-27T10:19:20.868Z,11.20
2023-03-27T10:23:51.784Z,10.65
2023-03-27T10:28:23.129Z,11.10
2023-03-27T10:32:57.320Z,7.10
2023-03-27T10:37:34.627Z,10.52
2023-03-27T10:42:09.657Z,7.93
2023-03-27T10:46:29.552Z,13.60
2023-03-27T10:50:58.122Z,10.07
2023-03-27T10:55:55.970Z,11.05
2023-03-27T11:00:18.728Z,10.73
2023-03-27T11:04:49.611Z,10.82
2023-03-27T11:09:16.291Z,6.55
2023-03-27T11:13:45.656Z,6.90
2023-03-27T11:18:03.341Z,6.60
2023-03-27T11:22:45.156Z,10.65
2023-03-27T11:27:39.336Z,9.35
2023-03-27T11:31:53.890Z,8.05
2023-03-27T11:36:51.780Z,6.28
2023-03-27T11:41:15.245Z,5.88
2023-03-27T11:45:49.270Z,7.30
2023-03-27T11:50:26.660Z,5.93
2023-03-27T11:55:06.854Z,5.82
2023-03-27T11:59:36.005Z,5.82
2023-03-27T12:04:07.124Z,8.48
2023-03-27T12:09:11.204Z,30.88
2023-03-27T12:14:40.096Z,11.65
2023-03-27T12:19:06.016Z,9.23
2023-03-27T12:24:16.409Z,7.05
2023-03-27T12:29:03.075Z,6.97
2023-03-27T12:34:05.475Z,8.27
2023-03-27T12:38:31.661Z,7.35
2023-03-27T12:42:54.035Z,6.88
2023-03-27T12:47:14.605Z,8.82
2023-03-27T12:51:54.104Z,8.13
2023-03-27T12:56:34.729Z,7.25
2023-03-27T13:01:00.803Z,8.98
2023-03-27T13:06:21.070Z,8.82
2023-03-27T13:10:34.638Z,7.70
2023-03-27T13:14:57.630Z,7.53
2023-03-27T13:19:32.096Z,7.40
2023-03-27T13:24:08.794Z,7.22
2023-03-27T13:28:37.554Z,5.43
2023-03-27T13:33:28.294Z,8.50
2023-03-27T13:37:48.429Z,5.68
2023-03-27T13:42:32.273Z,6.90
2023-03-27T13:46:51.278Z,6.65
2023-03-27T13:51:13.362Z,7.32
2023-03-27T13:55:57.078Z,8.52
2023-03-27T14:00:57.364Z,9.60
2023-03-27T14:05:35.885Z,11.35
2023-03-27T14:10:38.064Z,11.97
2023-03-27T14:15:46.588Z,10.88
2023-03-27T14:20:23.603Z,12.40
2023-03-27T14:25:01.304Z,5.68
2023-03-27T14:29:36.820Z,5.55
2023-03-27T14:34:12.430Z,12.40
2023-03-27T14:38:31.367Z,6.78
2023-03-27T14:42:49.901Z,7.28
2023-03-27T14:47:10.237Z,14.00
2023-03-27T14:51:35.100Z,8.20
2023-03-27T14:55:49.564Z,9.45
2023-03-27T15:00:23.750Z,9.82
2023-03-27T15:04:40.482Z,14.27
2023-03-27T15:09:05.682Z,10.93
2023-03-27T15:13:48.234Z,9.38
2023-03-27T15:18:15.639Z,9.07
2023-03-27T15:22:31.123Z,7.53
2023-03-27T15:26:43.719Z,6.55
2023-03-27T15:31:01.133Z,7.38
2023-03-27T15:35:36.283Z,3.55
2023-03-27T15:40:26.867Z,5.93
2023-03-27T15:44:42.153Z,8.63
2023-03-27T15:48:56.619Z,11.68
2023-03-27T15:53:09.097Z,13.38
2023-03-27T15:57:21.905Z,16.75
2023-03-27T16:01:40.910Z,14.27
2023-03-27T16:05:56.718Z,15.90
2023-03-27T16:10:10.699Z,14.07
2023-03-27T16:14:32.696Z,14.75
2023-03-27T16:18:49.367Z,10.40
2023-03-27T16:23:02.546Z,9.60
2023-03-27T16:27:15.073Z,13.85
2023-03-27T16:31:27.700Z,14.75
2023-03-27T16:35:40.080Z,7.32
2023-03-27T16:39:53.743Z,7.43
2023-03-27T16:44:06.181Z,7.88
2023-03-27T16:48:23.913Z,8.52
2023-03-27T16:52:36.313Z,7.15
2023-03-27T16:56:48.866Z,6.43
2023-03-27T17:01:01.521Z,5.10
2023-03-27T17:05:14.826Z,4.00
2023-03-27T17:09:27.912Z,3.80
2023-03-27T17:13:43.329Z,5.45
2023-03-27T17:17:56.237Z,7.32
2023-03-27T17:22:09.619Z,5.47
2023-03-27T17:26:28.187Z,6.60
2023-03-27T17:30:56.598Z,4.95
2023-03-27T17:35:13.785Z,4.80
2023-03-27T17:39:27.212Z,2.50
2023-03-27T17:43:40.532Z,4.82
2023-03-27T17:47:53.027Z,3.38
2023-03-27T17:52:08.562Z,3.55
2023-03-27T17:56:22.991Z,4.25
2023-03-27T18:00:36.648Z,2.45
2023-03-27T18:04:52.423Z,2.92
2023-03-27T18:09:05.287Z,4.40
2023-03-27T18:13:21.400Z,3.05
2023-03-27T18:17:35.771Z,2.05
2023-03-27T18:21:49.946Z,2.00
2023-03-27T18:26:08.991Z,2.58
2023-03-27T18:30:21.670Z,2.78
2023-03-27T18:34:34.308Z,4.93
2023-03-27T18:38:49.727Z,3.08
2023-03-27T18:43:02.350Z,2.85
2023-03-27T18:47:14.781Z,5.35
2023-03-27T18:51:27.152Z,4.15
2023-03-27T18:55:39.610Z,4.53
2023-03-27T18:59:52.264Z,6.20
2023-03-27T19:04:04.960Z,5.82
2023-03-27T19:08:18.730Z,4.85
2023-03-27T19:12:32.085Z,5.45
2023-03-27T19:17:01.048Z,6.05
2023-03-27T19:21:31.954Z,5.13
2023-03-27T19:25:55.148Z,6.18
2023-03-27T19:30:09.015Z,7.35
2023-03-27T19:34:32.666Z,5.05
2023-03-27T19:38:48.885Z,5.80
2023-03-27T19:43:01.329Z,7.97
2023-03-27T19:47:13.879Z,4.68
2023-03-27T19:51:26.374Z,4.10
2023-03-27T19:55:38.930Z,7.70
2023-03-27T19:59:51.743Z,4.30
2023-03-27T20:04:04.920Z,7.20
2023-03-27T20:08:18.308Z,6.63
2023-03-27T20:12:33.046Z,5.20
2023-03-27T20:16:46.846Z,5.00
2023-03-27T20:21:02.490Z,4.53
2023-03-27T20:25:15.694Z,4.95
2023-03-27T20:29:29.773Z,5.40
2023-03-27T20:33:42.159Z,3.60
2023-03-27T20:37:58.055Z,5.28
2023-03-27T20:42:15.966Z,4.83
2023-03-27T20:46:33.181Z,4.43
2023-03-27T20:50:55.788Z,2.83
2023-03-27T20:55:09.203Z,2.55
2023-03-27T20:59:21.938Z,2.33
2023-03-27T21:03:37.126Z,2.35
2023-03-27T21:07:51.582Z,1.75
2023-03-27T21:12:04.114Z,2.08
2023-03-27T21:16:16.715Z,1.65
2023-03-27T21:20:29.119Z,1.73
2023-03-27T21:24:41.441Z,2.05
2023-03-27T21:28:53.969Z,1.65
2023-03-27T21:33:07.503Z,1.23
2023-03-27T21:37:20.054Z,1.92
2023-03-27T21:41:32.667Z,3.60
2023-03-27T21:45:47.033Z,1.50
2023-03-27T21:49:59.444Z,2.05
2023-03-27T21:54:11.866Z,3.05
2023-03-27T21:58:25.026Z,2.25
2023-03-27T22:02:37.520Z,2.70
2023-03-27T22:06:50.064Z,1.13
2023-03-27T22:11:02.465Z,2.20
2023-03-27T22:15:14.839Z,2.85
2023-03-27T22:19:27.328Z,2.75
2023-03-27T22:23:39.816Z,1.60
2023-03-27T22:27:52.316Z,1.95
2023-03-27T22:32:04.830Z,2.60
2023-03-27T22:36:17.555Z,1.92
2023-03-27T22:40:30.130Z,1.08
2023-03-27T22:44:42.716Z,2.08
2023-03-27T22:48:56.863Z,1.30
2023-03-27T22:53:09.366Z,2.17
2023-03-27T22:57:21.665Z,2.97
2023-03-27T23:01:34.104Z,3.97
2023-03-27T23:05:49.371Z,2.28
2023-03-27T23:10:02.036Z,2.35
2023-03-27T23:14:14.678Z,2.83
2023-03-27T23:18:27.398Z,3.97
2023-03-27T23:22:39.797Z,2.40
2023-03-27T23:26:52.299Z,2.50
2023-03-27T23:31:07.432Z,3.42
2023-03-27T23:35:21.325Z,2.42
2023-03-27T23:39:33.706Z,2.65
2023-03-27T23:43:46.491Z,1.35
2023-03-27T23:47:58.888Z,1.17
2023-03-27T23:52:11.493Z,1.63
2023-03-27T23:56:23.883Z,2.35
